createdAt,value
2022-11-27T00:02:22.334Z,101511.50
2022-11-27T00:04:48.799Z,101526.19
2022-11-27T00:07:15.263Z,101509.69
2022-11-27T00:09:42.104Z,101517.50
2022-11-27T00:12:08.867Z,101529.69
2022-11-27T00:14:35.377Z,101507.19
2022-11-27T00:17:01.851Z,101521.03
2022-11-27T00:19:29.170Z,101508.09
2022-11-27T00:21:55.633Z,101486.47
2022-11-27T00:24:22.115Z,101503.78
2022-11-27T00:26:49.776Z,101490.75
2022-11-27T00:29:16.308Z,101507.19
2022-11-27T00:31:42.891Z,101496.78
2022-11-27T00:34:10.568Z,101480.28
2022-11-27T00:36:37.753Z,101485.50
2022-11-27T00:39:05.480Z,101472.56
2022-11-27T00:41:32.928Z,101493.28
2022-11-27T00:43:59.444Z,101473.38
2022-11-27T00:46:29.321Z,101482.84
2022-11-27T00:48:57.984Z,101482.81
2022-11-27T00:51:25.060Z,101475.94
2022-11-27T00:53:52.246Z,101456.88
2022-11-27T00:56:21.512Z,101475.00
2022-11-27T00:58:48.015Z,101459.41
2022-11-27T01:01:36.217Z,101470.66
2022-11-27T01:04:04.555Z,101468.03
2022-11-27T01:06:31.274Z,101472.34
2022-11-27T01:08:58.300Z,101463.69
2022-11-27T01:11:30.023Z,101461.06
2022-11-27T01:13:59.670Z,101465.38
2022-11-27T01:16:28.339Z,101445.41
2022-11-27T01:18:57.933Z,101458.41
2022-11-27T01:21:25.986Z,101450.56
2022-11-27T01:23:54.083Z,101424.63
2022-11-27T01:26:21.531Z,101444.47
2022-11-27T01:28:52.352Z,101440.97
2022-11-27T01:31:22.932Z,101438.41
2022-11-27T01:33:54.006Z,101428.81
2022-11-27T01:36:21.060Z,101422.72
2022-11-27T01:38:47.652Z,101419.25
2022-11-27T01:41:21.289Z,101417.47
2022-11-27T01:43:56.606Z,101426.13
2022-11-27T01:46:46.861Z,101417.47
2022-11-27T01:49:22.587Z,101425.19
2022-11-27T01:51:59.580Z,101418.25
2022-11-27T01:54:35.180Z,101402.66
2022-11-27T01:57:10.036Z,101417.31
2022-11-27T01:59:36.554Z,101418.16
2022-11-27T02:02:04.244Z,101405.22
2022-11-27T02:04:31.369Z,101412.09
2022-11-27T02:06:59.599Z,101421.59
2022-11-27T02:09:28.187Z,101399.06
2022-11-27T02:12:13.365Z,101413.72
2022-11-27T02:14:49.225Z,101418.06
2022-11-27T02:17:45.043Z,101412.84
2022-11-27T02:20:33.059Z,101416.22
2022-11-27T02:23:47.968Z,101417.97
2022-11-27T02:26:39.023Z,101412.69
2022-11-27T02:29:07.856Z,101407.56
2022-11-27T02:31:45.385Z,101399.75
2022-11-27T02:34:39.791Z,101417.84
2022-11-27T02:37:21.396Z,101422.13
2022-11-27T02:40:02.924Z,101417.78
2022-11-27T02:42:36.265Z,101404.75
2022-11-27T02:45:10.150Z,101373.63
2022-11-27T02:47:40.110Z,101403.81
2022-11-27T02:50:14.481Z,101401.22
2022-11-27T02:52:42.269Z,101399.44
2022-11-27T02:55:12.805Z,101394.25
2022-11-27T02:57:41.157Z,101376.03
2022-11-27T03:00:09.118Z,101401.13
2022-11-27T03:02:59.622Z,101395.03
2022-11-27T03:05:30.424Z,101386.38
2022-11-27T03:08:05.813Z,101388.03
2022-11-27T03:10:44.400Z,101387.91
2022-11-27T03:13:11.004Z,101378.34
2022-11-27T03:15:49.997Z,101384.41
2022-11-27T03:18:36.260Z,101368.78
2022-11-27T03:21:12.035Z,101380.84
2022-11-27T03:23:38.651Z,101374.75
2022-11-27T03:26:05.386Z,101354.00
2022-11-27T03:28:32.877Z,101379.00
2022-11-27T03:30:59.373Z,101359.94
2022-11-27T03:33:25.918Z,101360.03
2022-11-27T03:35:53.010Z,101354.66
2022-11-27T03:38:19.628Z,101344.31
2022-11-27T03:40:53.845Z,101355.44
2022-11-27T03:43:27.824Z,101352.81
2022-11-27T03:46:00.075Z,101368.31
2022-11-27T03:48:39.397Z,101382.22
2022-11-27T03:51:18.312Z,101377.00
2022-11-27T03:53:52.729Z,101369.94
2022-11-27T03:56:39.954Z,101365.63
2022-11-27T03:59:13.315Z,101365.56
2022-11-27T04:01:40.523Z,101356.09
2022-11-27T04:04:07.262Z,101369.91
2022-11-27T04:06:33.872Z,101362.91
2022-11-27T04:09:00.346Z,101364.72
2022-11-27T04:11:27.304Z,101371.63
2022-11-27T04:13:53.749Z,101362.06
2022-11-27T04:16:20.639Z,101337.06
2022-11-27T04:18:47.211Z,101348.19
2022-11-27T04:21:13.708Z,101318.09
2022-11-27T04:23:40.793Z,101361.97
2022-11-27T04:26:07.268Z,101358.53
2022-11-27T04:28:33.844Z,101365.47
2022-11-27T04:31:00.313Z,101366.34
2022-11-27T04:33:26.804Z,101371.56
2022-11-27T04:35:53.321Z,101360.19
2022-11-27T04:38:21.132Z,101368.00
2022-11-27T04:40:47.761Z,101337.00
2022-11-27T04:43:14.329Z,101387.03
2022-11-27T04:45:41.590Z,101381.94
2022-11-27T04:48:08.117Z,101363.72
2022-11-27T04:50:34.659Z,101378.31
2022-11-27T04:53:01.219Z,101372.22
2022-11-27T04:55:27.776Z,101373.06
2022-11-27T04:57:54.275Z,101365.25
2022-11-27T05:00:21.614Z,101351.41
2022-11-27T05:02:48.163Z,101364.25
2022-11-27T05:05:14.796Z,101370.38
2022-11-27T05:07:41.363Z,101367.69
2022-11-27T05:10:08.574Z,101359.97
2022-11-27T05:12:35.097Z,101361.59
2022-11-27T05:15:04.429Z,101358.94
2022-11-27T05:17:31.503Z,101350.38
2022-11-27T05:19:57.966Z,101360.63
2022-11-27T05:22:24.420Z,101350.31
2022-11-27T05:24:50.878Z,101353.66
2022-11-27T05:27:17.372Z,101344.97
2022-11-27T05:29:43.964Z,101331.16
2022-11-27T05:32:10.492Z,101351.88
2022-11-27T05:34:36.959Z,101338.03
2022-11-27T05:37:03.468Z,101326.94
2022-11-27T05:39:29.962Z,101360.63
2022-11-27T05:41:56.739Z,101344.13
2022-11-27T05:44:23.210Z,101349.28
2022-11-27T05:46:49.769Z,101342.41
2022-11-27T05:49:16.816Z,101336.31
2022-11-27T05:51:49.367Z,101331.22
2022-11-27T05:54:17.614Z,101350.94
2022-11-27T05:56:44.097Z,101334.59
2022-11-27T05:59:10.945Z,101336.44
2022-11-27T06:01:37.521Z,101338.94
2022-11-27T06:04:04.239Z,101349.28
2022-11-27T06:06:30.938Z,101359.63
2022-11-27T06:08:57.407Z,101356.16
2022-11-27T06:11:24.004Z,101361.38
2022-11-27T06:13:51.318Z,101348.38
2022-11-27T06:16:22.970Z,101351.00
2022-11-27T06:18:54.833Z,101351.91
2022-11-27T06:21:22.230Z,101361.38
2022-11-27T06:23:48.996Z,101376.97
2022-11-27T06:26:21.770Z,101353.47
2022-11-27T06:28:49.155Z,101347.34
2022-11-27T06:31:21.502Z,101366.50
2022-11-27T06:33:49.746Z,101379.56
2022-11-27T06:36:17.347Z,101362.13
2022-11-27T06:38:44.686Z,101344.81
2022-11-27T06:41:17.731Z,101346.50
2022-11-27T06:43:44.585Z,101325.06
2022-11-27T06:46:16.975Z,101324.91
2022-11-27T06:48:45.373Z,101329.16
2022-11-27T06:51:15.437Z,101329.16
2022-11-27T06:53:42.658Z,101317.88
2022-11-27T06:56:16.699Z,101328.28
2022-11-27T06:58:43.713Z,101316.25
2022-11-27T07:01:13.463Z,101324.81
2022-11-27T07:03:40.561Z,101327.44
2022-11-27T07:06:09.971Z,101304.19
2022-11-27T07:08:37.500Z,101322.19
2022-11-27T07:11:10.378Z,101322.25
2022-11-27T07:13:36.825Z,101328.31
2022-11-27T07:16:06.090Z,101332.69
2022-11-27T07:18:38.443Z,101336.09
2022-11-27T07:21:05.210Z,101313.59
2022-11-27T07:23:31.976Z,101321.34
2022-11-27T07:25:58.704Z,101322.13
2022-11-27T07:28:25.761Z,101327.34
2022-11-27T07:30:56.415Z,101325.63
2022-11-27T07:33:23.655Z,101316.09
2022-11-27T07:35:50.171Z,101331.66
2022-11-27T07:38:16.588Z,101328.25
2022-11-27T07:40:43.030Z,101327.41
2022-11-27T07:43:09.535Z,101338.59
2022-11-27T07:45:36.024Z,101284.22
2022-11-27T07:48:02.521Z,101323.00
2022-11-27T07:50:28.970Z,101338.47
2022-11-27T07:52:55.408Z,101327.31
2022-11-27T07:55:21.865Z,101342.78
2022-11-27T07:57:48.275Z,101350.59
2022-11-27T08:00:15.206Z,101325.44
2022-11-27T08:02:41.642Z,101334.91
2022-11-27T08:05:12.785Z,101333.97
2022-11-27T08:07:39.857Z,101327.00
2022-11-27T08:10:07.471Z,101325.28
2022-11-27T08:12:33.974Z,101317.44
2022-11-27T08:15:00.475Z,101301.00
2022-11-27T08:17:26.919Z,101299.97
2022-11-27T08:19:53.433Z,101289.81
2022-11-27T08:22:20.704Z,101323.53
2022-11-27T08:24:48.085Z,101332.25
2022-11-27T08:27:16.297Z,101331.44
2022-11-27T08:29:42.814Z,101321.81
2022-11-27T08:32:09.769Z,101297.47
2022-11-27T08:34:36.676Z,101288.81
2022-11-27T08:37:05.326Z,101309.16
2022-11-27T08:39:31.922Z,101311.81
2022-11-27T08:41:58.543Z,101328.16
2022-11-27T08:44:25.105Z,101342.78
2022-11-27T08:46:51.560Z,101351.44
2022-11-27T08:49:18.208Z,101362.75
2022-11-27T08:51:44.748Z,101305.81
2022-11-27T08:54:11.757Z,101341.81
2022-11-27T08:56:38.209Z,101333.97
2022-11-27T08:59:04.776Z,101332.22
2022-11-27T09:01:32.443Z,101340.84
2022-11-27T09:03:59.917Z,101347.78
2022-11-27T09:06:30.257Z,101346.91
2022-11-27T09:08:59.033Z,101345.16
2022-11-27T09:11:26.834Z,101318.38
2022-11-27T09:13:53.368Z,101337.31
2022-11-27T09:16:21.808Z,101337.25
2022-11-27T09:18:51.703Z,101331.16
2022-11-27T09:21:20.823Z,101333.72
2022-11-27T09:23:47.662Z,101313.03
2022-11-27T09:26:16.622Z,101331.97
2022-11-27T09:28:44.448Z,101324.13
2022-11-27T09:31:13.648Z,101322.25
2022-11-27T09:33:41.767Z,101291.19
2022-11-27T09:36:11.105Z,101309.13
2022-11-27T09:38:38.245Z,101307.38
2022-11-27T09:41:10.447Z,101313.28
2022-11-27T09:43:45.247Z,101316.00
2022-11-27T09:46:17.543Z,101318.44
2022-11-27T09:48:49.222Z,101311.50
2022-11-27T09:51:27.908Z,101294.06
2022-11-27T09:54:19.611Z,101290.41
2022-11-27T09:56:49.428Z,101289.53
2022-11-27T09:59:21.555Z,101301.63
2022-11-27T10:01:51.143Z,101305.06
2022-11-27T10:04:20.326Z,101310.25
2022-11-27T10:06:52.773Z,101313.63
2022-11-27T10:09:41.188Z,101308.47
2022-11-27T10:12:22.179Z,101323.03
2022-11-27T10:15:10.252Z,101335.13
2022-11-27T10:17:55.483Z,101316.91
2022-11-27T10:20:29.052Z,101289.22
2022-11-27T10:23:29.949Z,101314.16
2022-11-27T10:26:05.660Z,101299.41
2022-11-27T10:28:41.753Z,101281.88
2022-11-27T10:31:08.176Z,101274.06
2022-11-27T10:33:46.703Z,101294.75
2022-11-27T10:36:16.971Z,101269.75
2022-11-27T10:38:44.489Z,101252.34
2022-11-27T10:41:48.038Z,101268.50
2022-11-27T10:44:39.072Z,101258.94
2022-11-27T10:47:08.811Z,101230.44
2022-11-27T10:49:40.184Z,101239.91
2022-11-27T10:52:12.535Z,101244.09
2022-11-27T10:54:39.987Z,101244.09
2022-11-27T10:57:28.380Z,101252.78
2022-11-27T11:00:10.028Z,101251.03
2022-11-27T11:02:38.751Z,101256.25
2022-11-27T11:05:37.334Z,101250.13
2022-11-27T11:08:17.915Z,101240.41
2022-11-27T11:10:53.068Z,101243.03
2022-11-27T11:13:22.953Z,101242.88
2022-11-27T11:15:55.309Z,101241.06
2022-11-27T11:18:52.004Z,101225.44
2022-11-27T11:21:42.304Z,101230.50
2022-11-27T11:24:18.979Z,101220.03
2022-11-27T11:26:52.340Z,101194.22
2022-11-27T11:29:34.101Z,101220.91
2022-11-27T11:32:14.654Z,101213.97
2022-11-27T11:34:44.181Z,101218.25
2022-11-27T11:37:41.807Z,101214.78
2022-11-27T11:40:16.236Z,101218.25
2022-11-27T11:42:59.745Z,101223.38
2022-11-27T11:45:31.360Z,101218.16
2022-11-27T11:48:02.205Z,101192.34
2022-11-27T11:50:31.383Z,101210.94
2022-11-27T11:53:09.901Z,101217.94
2022-11-27T11:55:43.835Z,101217.81
2022-11-27T11:58:38.392Z,101208.16
2022-11-27T12:01:43.494Z,101202.03
2022-11-27T12:04:31.359Z,101205.31
2022-11-27T12:07:11.123Z,101203.41
2022-11-27T12:09:59.632Z,101202.53
2022-11-27T12:12:32.109Z,101200.78
2022-11-27T12:15:11.075Z,101200.78
2022-11-27T12:17:58.753Z,101159.22
2022-11-27T12:20:42.345Z,101158.25
2022-11-27T12:23:17.837Z,101179.66
2022-11-27T12:26:03.829Z,101167.34
2022-11-27T12:28:59.476Z,101143.16
2022-11-27T12:31:52.086Z,101160.34
2022-11-27T12:34:33.264Z,101152.41
2022-11-27T12:37:21.470Z,101144.53
2022-11-27T12:40:04.410Z,101133.09
2022-11-27T12:42:42.202Z,101136.44
2022-11-27T12:45:19.740Z,101140.72
2022-11-27T12:47:55.320Z,101140.59
2022-11-27T12:50:32.552Z,101136.25
2022-11-27T12:53:11.561Z,101126.63
2022-11-27T12:55:40.391Z,101131.00
2022-11-27T12:58:16.006Z,101126.75
2022-11-27T13:00:43.687Z,101124.94
2022-11-27T13:03:34.524Z,101105.44
2022-11-27T13:06:09.651Z,101123.34
2022-11-27T13:09:03.786Z,101123.34
2022-11-27T13:11:37.436Z,101111.94
2022-11-27T13:14:09.936Z,101124.13
2022-11-27T13:16:46.339Z,101128.53
2022-11-27T13:19:39.446Z,101125.91
2022-11-27T13:22:10.129Z,101088.84
2022-11-27T13:24:36.777Z,101118.91
2022-11-27T13:27:17.308Z,101081.00
2022-11-27T13:29:55.481Z,101077.34
2022-11-27T13:32:26.770Z,101091.19
2022-11-27T13:34:56.716Z,101079.25
2022-11-27T13:37:28.283Z,101091.38
2022-11-27T13:40:16.556Z,101076.00
2022-11-27T13:42:46.058Z,101099.16
2022-11-27T13:45:22.266Z,101089.72
2022-11-27T13:47:50.927Z,101087.09
2022-11-27T13:50:20.397Z,101082.69
2022-11-27T13:53:04.247Z,101046.91
2022-11-27T13:55:36.686Z,101083.69
2022-11-27T13:58:06.115Z,101093.41
2022-11-27T14:00:34.127Z,101093.50
2022-11-27T14:03:01.208Z,101089.25
2022-11-27T14:05:38.941Z,101085.06
2022-11-27T14:08:17.409Z,101086.03
2022-11-27T14:10:55.519Z,101069.72
2022-11-27T14:13:32.013Z,101047.41
2022-11-27T14:16:02.002Z,101065.44
2022-11-27T14:18:30.453Z,101035.59
2022-11-27T14:21:02.867Z,101032.13
2022-11-27T14:23:50.839Z,101049.47
2022-11-27T14:26:24.071Z,101051.28
2022-11-27T14:28:55.756Z,101058.28
2022-11-27T14:31:24.805Z,101044.66
2022-11-27T14:34:14.363Z,101029.28
2022-11-27T14:36:37.811Z,101069.88
2022-11-27T14:39:05.016Z,101060.44
2022-11-27T14:41:31.758Z,101044.19
2022-11-27T14:44:03.043Z,101052.13
2022-11-27T14:46:32.337Z,101023.91
2022-11-27T14:48:59.034Z,101045.34
2022-11-27T14:51:27.989Z,101035.06
2022-11-27T14:54:00.017Z,101040.44
2022-11-27T14:56:33.751Z,101037.03
2022-11-27T14:59:01.593Z,101037.97
2022-11-27T15:01:31.764Z,101045.88
2022-11-27T15:03:59.540Z,101044.34
2022-11-27T15:06:29.931Z,101025.44
2022-11-27T15:09:23.718Z,101021.88
2022-11-27T15:11:55.861Z,101003.88
2022-11-27T15:14:25.469Z,101016.91
2022-11-27T15:16:53.751Z,101014.47
2022-11-27T15:19:29.743Z,101007.59
2022-11-27T15:21:57.684Z,101004.97
2022-11-27T15:24:35.838Z,101006.84
2022-11-27T15:27:14.422Z,101013.03
2022-11-27T15:29:46.101Z,101016.63
2022-11-27T15:32:24.751Z,101019.38
2022-11-27T15:34:54.682Z,101005.81
2022-11-27T15:37:28.235Z,101010.94
2022-11-27T15:39:56.520Z,101005.88
2022-11-27T15:42:23.245Z,101007.81
2022-11-27T15:44:53.561Z,100994.78
2022-11-27T15:47:33.856Z,100993.09
2022-11-27T15:50:00.809Z,100991.41
2022-11-27T15:52:27.677Z,100985.38
2022-11-27T15:54:55.445Z,100949.38
2022-11-27T15:57:22.630Z,100987.16
2022-11-27T15:59:49.103Z,100977.72
2022-11-27T16:02:18.009Z,100986.44
2022-11-27T16:04:44.669Z,100978.66
2022-11-27T16:07:11.213Z,100971.75
2022-11-27T16:09:39.863Z,100959.88
2022-11-27T16:12:06.901Z,100939.34
2022-11-27T16:14:33.432Z,100986.59
2022-11-27T16:17:01.262Z,100977.19
2022-11-27T16:19:27.883Z,100978.81
2022-11-27T16:21:54.740Z,100969.38
2022-11-27T16:24:21.317Z,100971.97
2022-11-27T16:26:47.899Z,100978.94
2022-11-27T16:29:14.528Z,100973.94
2022-11-27T16:31:41.060Z,100973.13
2022-11-27T16:34:07.705Z,100989.38
2022-11-27T16:36:34.770Z,100983.31
2022-11-27T16:39:01.252Z,100983.34
2022-11-27T16:41:27.842Z,100990.22
2022-11-27T16:43:56.129Z,100972.09
2022-11-27T16:46:29.827Z,100969.41
2022-11-27T16:48:59.066Z,100956.44
2022-11-27T16:51:33.335Z,100966.03
2022-11-27T16:54:03.668Z,100968.63
2022-11-27T16:56:31.797Z,100948.06
2022-11-27T16:59:02.752Z,100958.38
2022-11-27T17:01:32.871Z,100961.88
2022-11-27T17:03:59.675Z,100948.22
2022-11-27T17:06:31.311Z,100952.50
2022-11-27T17:09:00.049Z,100940.34
2022-11-27T17:11:29.715Z,100907.38
2022-11-27T17:13:58.040Z,100877.13
2022-11-27T17:16:24.965Z,100877.13
2022-11-27T17:18:51.520Z,100898.03
2022-11-27T17:21:24.924Z,100867.16
2022-11-27T17:23:53.853Z,100905.06
2022-11-27T17:26:22.662Z,100895.50
2022-11-27T17:28:49.690Z,100892.47
2022-11-27T17:31:18.828Z,100926.03
2022-11-27T17:33:46.363Z,100908.72
2022-11-27T17:36:13.502Z,100913.00
2022-11-27T17:38:40.083Z,100908.69
2022-11-27T17:41:09.166Z,100896.53
2022-11-27T17:43:36.897Z,100894.78
2022-11-27T17:46:13.287Z,100880.94
2022-11-27T17:48:39.935Z,100856.66
2022-11-27T17:51:07.140Z,100828.81
2022-11-27T17:53:34.330Z,100834.91
2022-11-27T17:56:05.382Z,100848.13
2022-11-27T17:58:31.952Z,100868.13
2022-11-27T18:00:58.817Z,100863.72
2022-11-27T18:03:25.612Z,100854.25
2022-11-27T18:05:52.065Z,100858.59
2022-11-27T18:08:18.506Z,100851.59
2022-11-27T18:10:45.772Z,100863.78
2022-11-27T18:13:12.381Z,100863.72
2022-11-27T18:15:39.104Z,100877.56
2022-11-27T18:18:05.700Z,100874.16
2022-11-27T18:20:32.145Z,100860.31
2022-11-27T18:22:58.673Z,100846.47
2022-11-27T18:25:25.164Z,100849.03
2022-11-27T18:27:51.625Z,100835.16
2022-11-27T18:30:18.344Z,100837.88
2022-11-27T18:32:44.830Z,100816.53
2022-11-27T18:35:11.274Z,100852.72
2022-11-27T18:37:38.523Z,100855.34
2022-11-27T18:40:09.286Z,100848.47
2022-11-27T18:42:36.003Z,100858.00
2022-11-27T18:45:02.489Z,100848.72
2022-11-27T18:47:28.966Z,100858.91
2022-11-27T18:49:56.536Z,100842.56
2022-11-27T18:52:23.079Z,100855.56
2022-11-27T18:54:49.533Z,100841.69
2022-11-27T18:57:15.979Z,100827.00
2022-11-27T18:59:44.241Z,100833.06
2022-11-27T19:02:11.166Z,100813.31
2022-11-27T19:04:38.018Z,100833.19
2022-11-27T19:07:04.901Z,100828.19
2022-11-27T19:09:31.402Z,100828.09
2022-11-27T19:11:57.965Z,100818.69
2022-11-27T19:14:24.426Z,100819.59
2022-11-27T19:16:51.114Z,100823.09
2022-11-27T19:22:09.407Z,100799.13
2022-11-27T19:24:36.906Z,100828.50
2022-11-27T19:27:03.581Z,100819.84
2022-11-27T19:29:30.087Z,100833.63
2022-11-27T19:31:58.761Z,100832.78
2022-11-27T19:34:25.476Z,100847.56
2022-11-27T19:36:52.897Z,100852.75
2022-11-27T19:39:19.355Z,100838.19
2022-11-27T19:41:45.891Z,100846.69
2022-11-27T19:44:13.101Z,100843.28
2022-11-27T19:46:40.181Z,100844.13
2022-11-27T19:49:12.239Z,100807.19
2022-11-27T19:51:39.214Z,100841.50
2022-11-27T19:54:10.210Z,100837.13
2022-11-27T19:56:39.598Z,100812.19
2022-11-27T19:59:06.987Z,100834.50
2022-11-27T20:01:33.682Z,100843.22
2022-11-27T20:04:01.987Z,100842.41
2022-11-27T20:06:28.673Z,100832.88
2022-11-27T20:09:00.237Z,100836.28
2022-11-27T20:11:32.669Z,100833.72
2022-11-27T20:14:01.002Z,100821.63
2022-11-27T20:16:27.795Z,100823.28
2022-11-27T20:18:54.634Z,100821.59
2022-11-27T20:21:23.530Z,100812.88
2022-11-27T20:23:51.770Z,100828.44
2022-11-27T20:26:23.482Z,100822.41
2022-11-27T20:28:51.061Z,100821.50
2022-11-27T20:31:23.741Z,100814.63
2022-11-27T20:33:55.978Z,100826.72
2022-11-27T20:36:23.519Z,100825.91
2022-11-27T20:38:50.767Z,100823.28
2022-11-27T20:41:19.600Z,100814.56
2022-11-27T20:43:46.667Z,100823.28
2022-11-27T20:46:15.553Z,100801.84
2022-11-27T20:48:45.387Z,100832.00
2022-11-27T20:51:14.121Z,100813.03
2022-11-27T20:53:41.962Z,100823.22
2022-11-27T20:56:09.959Z,100832.00
2022-11-27T20:58:38.279Z,100826.91
2022-11-27T21:01:20.111Z,100843.22
2022-11-27T21:03:48.531Z,100821.81
2022-11-27T21:06:16.892Z,100828.66
2022-11-27T21:08:43.379Z,100823.53
2022-11-27T21:11:09.989Z,100826.09
2022-11-27T21:13:36.693Z,100823.53
2022-11-27T21:16:04.018Z,100805.47
2022-11-27T21:18:30.592Z,100818.41
2022-11-27T21:21:05.360Z,100809.06
2022-11-27T21:23:31.852Z,100798.78
2022-11-27T21:25:58.330Z,100822.88
2022-11-27T21:28:24.804Z,100822.13
2022-11-27T21:30:51.465Z,100829.91
2022-11-27T21:33:17.885Z,100830.81
2022-11-27T21:35:44.341Z,100830.88
2022-11-27T21:38:10.788Z,100829.25
2022-11-27T21:40:37.576Z,100843.06
2022-11-27T21:43:04.049Z,100840.53
2022-11-27T21:45:30.533Z,100823.41
2022-11-27T21:47:57.028Z,100832.03
2022-11-27T21:50:23.477Z,100812.31
2022-11-27T21:52:52.314Z,100827.69
2022-11-27T21:55:18.782Z,100813.09
2022-11-27T21:57:45.254Z,100813.97
2022-11-27T22:00:11.982Z,100800.34
2022-11-27T22:02:38.532Z,100825.31
2022-11-27T22:05:05.766Z,100820.16
2022-11-27T22:07:32.244Z,100820.22
2022-11-27T22:09:58.789Z,100815.09
2022-11-27T22:12:25.391Z,100793.72
2022-11-27T22:14:51.902Z,100799.72
2022-11-27T22:17:19.170Z,100828.16
2022-11-27T22:19:45.919Z,100830.00
2022-11-27T22:22:12.366Z,100809.41
2022-11-27T22:24:38.818Z,100834.38
2022-11-27T22:27:05.588Z,100831.00
2022-11-27T22:29:32.221Z,100833.59
2022-11-27T22:31:58.705Z,100831.09
2022-11-27T22:34:25.627Z,100832.84
2022-11-27T22:36:52.083Z,100814.91
2022-11-27T22:39:18.562Z,100808.00
2022-11-27T22:41:45.115Z,100814.88
2022-11-27T22:44:15.347Z,100830.47
2022-11-27T22:46:42.601Z,100802.97
2022-11-27T22:49:10.994Z,100819.31
2022-11-27T22:51:38.156Z,100810.84
2022-11-27T22:54:06.710Z,100825.53
2022-11-27T22:56:33.796Z,100816.94
2022-11-27T22:59:30.642Z,100784.44
2022-11-27T23:01:48.650Z,100820.59
2022-11-27T23:04:15.320Z,100826.72
2022-11-27T23:06:41.983Z,100817.41
2022-11-27T23:09:09.552Z,100826.88
2022-11-27T23:11:36.208Z,100820.91
2022-11-27T23:14:05.973Z,100812.31
2022-11-27T23:16:33.703Z,100827.94
2022-11-27T23:19:00.391Z,100807.38
2022-11-27T23:21:30.137Z,100818.59
2022-11-27T23:23:58.876Z,100817.84
2022-11-27T23:26:25.588Z,100817.00
2022-11-27T23:28:58.880Z,100822.25
2022-11-27T23:31:30.288Z,100828.34
2022-11-27T23:33:59.294Z,100811.19
2022-11-27T23:36:25.844Z,100818.13
2022-11-27T23:38:52.712Z,100830.22
2022-11-27T23:41:22.335Z,100819.91
2022-11-27T23:43:51.637Z,100821.69
2022-11-27T23:46:21.050Z,100826.88
2022-11-27T23:48:48.017Z,100823.50
2022-11-27T23:51:17.532Z,100821.81
2022-11-27T23:53:47.491Z,100809.81
2022-11-27T23:56:22.708Z,100803.00
2022-11-27T23:58:54.636Z,100817.66
